Home   Weather   Austria   Wals-Siezenheim   Past weeks
Flag for Austria

Past Weather in Wals-Siezenheim, Salzburg, Austria — Yesterday and Last 2 Weeks

Currently: 48 °F. Clear. (Weather station: Salzburg-Flughafen, Austria). See more current weather

Past Weather in Wals-Siezenheim — Graph

°F

Wals-Siezenheim Temperature Yesterday

Maximum temperature yesterday: 64 °F (at 3:20 pm)
Minimum temperature yesterday: 39 °F (at 1:20 am)
Average temperature yesterday: 52 °F

High & Low Weather Summary for the Past Weeks

 TemperatureHumidityPressure
High73 °F (Apr 1, 1:20 pm)100% (Apr 5, 9:50 pm)30.54 "Hg (Apr 5, 9:50 pm)
Low27 °F (Apr 6, 7:20 am)23% (Apr 5, 4:50 pm)29.59 "Hg (Apr 5, 3:50 pm)
Average46 °F62%30.15 "Hg
* Reported Mar 26 10:20 pm — Apr 10 11:20 pm, Wals-Siezenheim. Weather by CustomWeather, © 2021

Note: Actual official high and low records may vary slightly from our data, if they occured in-between our weather recording intervals... More about our weather records

Wals-Siezenheim Weather History for the Previous 24 Hours

Scroll right to see more
 ConditionsComfort  
Time TempWeatherWind HumidityBarometerVisibility
11:20 pm
Sat, Apr 10
48 °FClear.9 mph62%29.92 "HgN/A
10:50 pm48 °FClear.7 mph62%29.92 "HgN/A
10:20 pm52 °FClear.6 mph54%29.92 "HgN/A
9:50 pm50 °FClear.7 mph62%29.92 "Hg10 mi
9:20 pm50 °FPassing clouds.5 mph67%29.92 "HgN/A
8:50 pm50 °FClear.6 mph67%29.89 "Hg10 mi
8:20 pm57 °FClear.6 mph48%29.89 "Hg10 mi
7:50 pm59 °FPassing clouds.7 mph42%29.89 "HgN/A
7:20 pm61 °FPassing clouds.9 mph39%29.89 "HgN/A
6:50 pm63 °FPassing clouds.10 mph37%29.89 "HgN/A
6:20 pm64 °FPassing clouds.10 mph32%29.89 "HgN/A
5:50 pm64 °FPassing clouds.10 mph30%29.89 "HgN/A
5:20 pm64 °FPassing clouds.8 mph30%29.92 "HgN/A
4:50 pm64 °FPassing clouds.9 mph30%29.92 "HgN/A
4:20 pm64 °FPassing clouds.9 mph30%29.92 "HgN/A
3:50 pm64 °FPassing clouds.9 mph28%29.92 "HgN/A
3:20 pm64 °FPassing clouds.8 mph30%29.95 "HgN/A
2:50 pm63 °FPassing clouds.8 mph32%29.95 "HgN/A
2:20 pm63 °FPassing clouds.8 mph32%29.95 "HgN/A
1:50 pm63 °FPassing clouds.3 mph32%29.98 "HgN/A
1:20 pm63 °FPassing clouds.7 mph34%29.98 "HgN/A
12:50 pm63 °FPassing clouds.3 mph37%30.01 "HgN/A
12:20 pm61 °FPassing clouds.2 mph31%30.01 "HgN/A
11:50 am61 °FPassing clouds.3 mph34%30.01 "HgN/A
11:20 am57 °FPassing clouds.2 mph36%30.01 "HgN/A
10:50 am55 °FPassing clouds.6 mph41%30.01 "HgN/A
10:20 am54 °FPassing clouds.9 mph47%30.01 "HgN/A
9:50 am50 °FSunny.12 mph50%30.01 "Hg10 mi
9:20 am48 °FSunny.10 mph54%30.01 "Hg10 mi
8:50 am46 °FPassing clouds.12 mph53%30.01 "HgN/A
8:20 am45 °FSunny.12 mph57%30.01 "Hg10 mi
7:50 am43 °FSunny.14 mph61%30.01 "Hg10 mi
7:20 am41 °FSunny.14 mph61%30.01 "Hg10 mi
6:50 am41 °FSunny.14 mph61%29.98 "Hg10 mi
6:20 am41 °FClear.14 mph61%29.98 "Hg10 mi
5:50 am39 °FPassing clouds.14 mph65%29.98 "HgN/A
5:20 am41 °FPassing clouds.14 mph61%29.98 "HgN/A
4:50 am41 °FQuite cool.14 mph66%29.98 "HgN/A
4:20 am41 °FQuite cool.13 mph61%29.98 "HgN/A
3:50 am39 °FChilly.12 mph70%29.98 "HgN/A
3:20 am41 °FQuite cool.12 mph66%29.98 "HgN/A
2:50 am41 °FQuite cool.12 mph66%30.01 "HgN/A
2:20 am39 °FChilly.9 mph70%30.01 "HgN/A
1:50 am39 °FChilly.12 mph70%30.01 "HgN/A
1:20 am39 °FChilly.9 mph70%30.01 "HgN/A
12:50 am41 °FQuite cool.10 mph66%30.01 "HgN/A
12:20 am43 °FQuite cool.8 mph61%30.04 "HgN/A
Weather by CustomWeather, © 2021

See weather overview